createdAt,value
2018-10-18T00:00:03.709Z,11.76
2018-10-18T00:05:07.821Z,11.70
2018-10-18T00:10:11.123Z,11.61
2018-10-18T00:15:14.843Z,11.58
2018-10-18T00:20:18.256Z,11.60
2018-10-18T00:25:21.568Z,11.62
2018-10-18T00:30:24.881Z,11.63
2018-10-18T00:35:28.171Z,11.64
2018-10-18T00:40:31.498Z,11.66
2018-10-18T00:45:34.791Z,11.58
2018-10-18T00:50:38.094Z,11.57
2018-10-18T00:55:41.409Z,11.44
2018-10-18T01:00:44.708Z,11.33
2018-10-18T01:05:48.000Z,11.29
2018-10-18T01:10:51.326Z,11.29
2018-10-18T01:15:54.628Z,11.23
2018-10-18T01:20:57.922Z,11.20
2018-10-18T01:26:01.678Z,11.12
2018-10-18T01:31:05.016Z,11.06
2018-10-18T01:36:08.378Z,11.12
2018-10-18T01:41:11.668Z,11.08
2018-10-18T01:46:14.977Z,11.07
2018-10-18T01:51:18.277Z,11.01
2018-10-18T01:56:21.627Z,10.86
2018-10-18T02:01:24.925Z,10.82
2018-10-18T02:06:28.253Z,10.79
2018-10-18T02:11:31.556Z,10.80
2018-10-18T02:16:34.901Z,10.70
2018-10-18T02:21:38.187Z,10.60
2018-10-18T02:26:41.455Z,10.55
2018-10-18T02:31:44.770Z,10.50
2018-10-18T02:36:48.079Z,10.47
2018-10-18T02:41:51.444Z,10.46
2018-10-18T02:46:54.800Z,10.40
2018-10-18T02:51:58.154Z,10.38
2018-10-18T02:57:01.506Z,10.40
2018-10-18T03:02:05.308Z,10.35
2018-10-18T03:07:08.948Z,10.29
2018-10-18T03:12:12.327Z,10.24
2018-10-18T03:17:15.603Z,10.19
2018-10-18T03:22:18.947Z,10.05
2018-10-18T03:27:22.239Z,9.96
2018-10-18T03:32:25.564Z,9.98
2018-10-18T03:37:28.861Z,9.98
2018-10-18T03:42:32.175Z,9.97
2018-10-18T03:47:35.566Z,9.99
2018-10-18T03:52:38.875Z,9.99
2018-10-18T03:57:42.223Z,10.04
2018-10-18T04:02:45.608Z,10.03
2018-10-18T04:07:48.935Z,10.10
2018-10-18T04:12:52.370Z,10.12
2018-10-18T04:17:55.736Z,10.10
2018-10-18T04:22:58.972Z,10.08
2018-10-18T04:28:02.339Z,10.07
2018-10-18T04:33:05.649Z,10.10
2018-10-18T04:38:08.953Z,10.09
2018-10-18T04:43:12.232Z,9.92
2018-10-18T04:48:15.614Z,9.90
2018-10-18T04:53:18.803Z,9.97
2018-10-18T04:58:22.109Z,9.96
2018-10-18T05:03:25.379Z,9.94
2018-10-18T05:08:29.023Z,9.89
2018-10-18T05:13:32.320Z,9.89
2018-10-18T05:18:35.603Z,9.89
2018-10-18T05:23:38.925Z,9.86
2018-10-18T05:28:42.197Z,9.81
2018-10-18T05:33:45.463Z,9.80
2018-10-18T05:38:48.729Z,9.82
2018-10-18T05:43:52.027Z,9.71
2018-10-18T05:48:55.330Z,9.56
2018-10-18T05:53:58.760Z,9.52
2018-10-18T05:59:01.942Z,9.58
2018-10-18T06:04:05.313Z,9.55
2018-10-18T06:09:11.621Z,9.50
2018-10-18T06:14:14.917Z,9.49
2018-10-18T06:19:18.342Z,9.52
2018-10-18T06:24:21.576Z,9.54
2018-10-18T06:29:24.883Z,9.64
2018-10-18T06:34:28.257Z,9.80
2018-10-18T06:39:31.664Z,9.94
2018-10-18T06:44:34.969Z,10.08
2018-10-18T06:49:38.436Z,10.11
2018-10-18T06:54:41.764Z,10.17
2018-10-18T06:59:45.132Z,10.35
2018-10-18T07:04:48.439Z,10.60
2018-10-18T07:09:51.781Z,10.83
2018-10-18T07:14:55.199Z,10.95
2018-10-18T07:19:58.491Z,11.13
2018-10-18T07:25:01.805Z,11.30
2018-10-18T07:30:06.990Z,11.40
2018-10-18T07:35:11.467Z,11.59
2018-10-18T07:40:15.919Z,11.81
2018-10-18T07:45:19.201Z,11.97
2018-10-18T07:50:22.507Z,12.02
2018-10-18T07:55:25.833Z,12.03
2018-10-18T08:00:29.471Z,12.10
2018-10-18T08:05:32.714Z,12.13
2018-10-18T08:10:36.153Z,12.20
2018-10-18T08:15:39.741Z,12.35
2018-10-18T08:20:43.569Z,12.47
2018-10-18T08:25:46.929Z,12.61
2018-10-18T08:30:53.489Z,12.68
2018-10-18T08:35:56.815Z,12.74
2018-10-18T08:41:00.335Z,12.83
2018-10-18T08:46:03.810Z,12.92
2018-10-18T08:51:07.249Z,13.03
2018-10-18T08:56:10.852Z,13.22
2018-10-18T09:01:14.324Z,13.33
2018-10-18T09:06:17.800Z,13.36
2018-10-18T09:11:21.449Z,13.36
2018-10-18T09:16:24.905Z,13.59
2018-10-18T09:21:28.355Z,13.60
2018-10-18T09:26:31.672Z,13.57
2018-10-18T09:31:35.153Z,13.67
2018-10-18T09:36:38.666Z,13.90
2018-10-18T09:41:42.306Z,14.10
2018-10-18T09:46:45.724Z,14.13
2018-10-18T09:51:49.167Z,13.94
2018-10-18T09:56:52.769Z,13.92
2018-10-18T10:02:01.389Z,14.22
2018-10-18T10:07:04.954Z,14.15
2018-10-18T10:12:08.324Z,14.02
2018-10-18T10:17:11.794Z,13.85
2018-10-18T10:22:15.313Z,13.81
2018-10-18T10:27:18.609Z,13.70
2018-10-18T10:32:22.140Z,13.54
2018-10-18T10:37:25.538Z,13.50
2018-10-18T10:42:29.117Z,13.50
2018-10-18T10:47:32.584Z,13.62
2018-10-18T10:52:35.949Z,13.81
2018-10-18T10:57:39.269Z,13.71
2018-10-18T11:02:42.878Z,13.74
2018-10-18T11:07:46.506Z,13.84
2018-10-18T11:12:49.953Z,13.88
2018-10-18T11:17:53.555Z,13.85
2018-10-18T11:22:57.204Z,13.80
2018-10-18T11:28:00.742Z,13.78
2018-10-18T11:33:04.238Z,13.77
2018-10-18T11:38:07.863Z,13.72
2018-10-18T11:43:11.753Z,13.67
2018-10-18T11:48:15.587Z,13.67
2018-10-18T11:53:19.013Z,13.68
2018-10-18T11:58:22.323Z,13.58
2018-10-18T12:03:25.866Z,13.53
2018-10-18T12:08:29.319Z,13.47
2018-10-18T12:13:33.025Z,13.44
2018-10-18T12:18:36.647Z,13.42
2018-10-18T12:23:40.344Z,13.37
2018-10-18T12:28:43.822Z,13.33
2018-10-18T12:33:47.233Z,13.41
2018-10-18T12:38:50.629Z,13.39
2018-10-18T12:43:54.406Z,13.40
2018-10-18T12:48:57.977Z,13.42
2018-10-18T12:54:01.393Z,13.49
2018-10-18T12:59:04.798Z,13.46
2018-10-18T13:04:08.487Z,13.41
2018-10-18T13:09:11.985Z,13.40
2018-10-18T13:14:15.709Z,13.36
2018-10-18T13:19:18.985Z,13.32
2018-10-18T13:24:22.667Z,13.25
2018-10-18T13:29:26.057Z,13.30
2018-10-18T13:34:29.390Z,13.34
2018-10-18T13:39:32.701Z,13.48
2018-10-18T13:44:36.034Z,13.46
2018-10-18T13:49:40.550Z,13.44
2018-10-18T13:54:44.198Z,13.40
2018-10-18T13:59:59.049Z,13.40
2018-10-18T14:05:02.465Z,13.35
2018-10-18T14:10:06.054Z,13.29
2018-10-18T14:15:09.575Z,13.26
2018-10-18T14:20:13.046Z,13.26
2018-10-18T14:25:16.436Z,13.26
2018-10-18T14:30:20.050Z,13.28
2018-10-18T14:35:23.402Z,13.29
2018-10-18T14:40:26.803Z,13.31
2018-10-18T14:45:30.137Z,13.32
2018-10-18T14:50:33.587Z,13.33
2018-10-18T14:55:37.118Z,13.35
2018-10-18T15:00:40.494Z,13.32
2018-10-18T15:05:44.659Z,13.33
2018-10-18T15:10:48.074Z,13.32
2018-10-18T15:15:52.558Z,13.32
2018-10-18T15:20:55.897Z,13.33
2018-10-18T15:25:59.526Z,13.34
2018-10-18T15:31:02.868Z,13.35
2018-10-18T15:36:06.330Z,13.35
2018-10-18T15:41:09.904Z,13.35
2018-10-18T15:46:13.357Z,13.36
2018-10-18T15:51:16.795Z,13.35
2018-10-18T15:56:20.413Z,13.36
2018-10-18T16:01:23.765Z,13.36
2018-10-18T16:06:27.242Z,13.38
2018-10-18T16:11:30.540Z,13.39
2018-10-18T16:16:33.886Z,13.39
2018-10-18T16:21:37.231Z,13.41
2018-10-18T16:26:40.706Z,13.41
2018-10-18T16:31:44.014Z,13.43
2018-10-18T16:36:47.379Z,13.44
2018-10-18T16:41:50.796Z,13.45
2018-10-18T16:46:55.351Z,13.44
2018-10-18T16:51:58.747Z,13.46
2018-10-18T16:57:02.100Z,13.48
2018-10-18T17:02:05.858Z,13.49
2018-10-18T17:07:09.223Z,13.49
2018-10-18T17:12:12.594Z,13.51
2018-10-18T17:17:16.030Z,13.50
2018-10-18T17:22:35.261Z,13.51
2018-10-18T17:27:38.843Z,13.53
2018-10-18T17:32:42.567Z,13.54
2018-10-18T17:37:46.117Z,13.56
2018-10-18T17:42:49.878Z,13.58
2018-10-18T17:47:53.258Z,13.58
2018-10-18T17:52:56.691Z,13.59
2018-10-18T17:57:59.995Z,13.59
2018-10-18T18:03:03.398Z,13.60
2018-10-18T18:08:06.789Z,13.61
2018-10-18T18:13:10.124Z,13.61
2018-10-18T18:18:13.470Z,13.63
2018-10-18T18:23:16.834Z,13.65
2018-10-18T18:28:20.165Z,13.64
2018-10-18T18:33:23.568Z,13.63
2018-10-18T18:38:26.994Z,13.64
2018-10-18T18:43:30.667Z,13.64
2018-10-18T18:48:34.153Z,13.65
2018-10-18T18:53:37.614Z,13.66
2018-10-18T18:58:40.921Z,13.67
2018-10-18T19:03:44.249Z,13.67
2018-10-18T19:08:47.593Z,13.66
2018-10-18T19:13:51.025Z,13.66
2018-10-18T19:18:54.383Z,13.65
2018-10-18T19:23:57.767Z,13.66
2018-10-18T19:29:01.193Z,13.67
2018-10-18T19:34:04.579Z,13.67
2018-10-18T19:39:08.265Z,13.68
2018-10-18T19:44:11.667Z,13.69
2018-10-18T19:49:15.006Z,13.69
2018-10-18T19:54:18.729Z,13.71
2018-10-18T19:59:22.027Z,13.71
2018-10-18T20:04:25.375Z,13.70
2018-10-18T20:09:28.693Z,13.72
2018-10-18T20:14:32.078Z,13.71
2018-10-18T20:19:35.385Z,13.73
2018-10-18T20:24:39.392Z,13.72
2018-10-18T20:29:42.698Z,13.74
2018-10-18T20:34:46.006Z,13.75
2018-10-18T20:39:49.310Z,13.73
2018-10-18T20:44:52.661Z,13.72
2018-10-18T20:49:56.001Z,13.72
2018-10-18T20:54:59.318Z,13.73
2018-10-18T21:00:02.889Z,13.73
2018-10-18T21:05:06.619Z,13.72
2018-10-18T21:10:09.990Z,13.73
2018-10-18T21:15:13.455Z,13.72
2018-10-18T21:20:17.030Z,13.72
2018-10-18T21:25:20.337Z,13.72
2018-10-18T21:30:23.664Z,13.72
2018-10-18T21:35:26.970Z,13.71
2018-10-18T21:40:30.336Z,13.72
2018-10-18T21:45:33.889Z,13.72
2018-10-18T21:50:37.191Z,13.71
2018-10-18T21:55:40.555Z,13.72
2018-10-18T22:00:45.296Z,13.71
2018-10-18T22:05:48.801Z,13.71
2018-10-18T22:10:52.164Z,13.71
2018-10-18T22:15:55.570Z,13.70
2018-10-18T22:20:58.968Z,13.70
2018-10-18T22:26:02.239Z,13.70
2018-10-18T22:31:06.023Z,13.67
2018-10-18T22:36:09.388Z,13.65
2018-10-18T22:41:12.851Z,13.63
2018-10-18T22:46:16.230Z,13.63
2018-10-18T22:51:19.670Z,13.63
2018-10-18T22:56:23.037Z,13.61
2018-10-18T23:01:26.399Z,13.60
2018-10-18T23:06:29.767Z,13.60
2018-10-18T23:11:33.121Z,13.60
2018-10-18T23:16:36.804Z,13.58
2018-10-18T23:21:40.141Z,13.56
2018-10-18T23:26:43.490Z,13.55
2018-10-18T23:31:46.837Z,13.55
2018-10-18T23:36:50.157Z,13.55
2018-10-18T23:41:53.483Z,13.53
2018-10-18T23:46:56.823Z,13.52
2018-10-18T23:52:00.192Z,13.50
2018-10-18T23:57:03.653Z,13.50
